Orbital elements of FENGYUN 1C DEB
| Launched | 9 May 1999 |
| Flight ended | – |
| Launch site | Taiyuan Space Center, PRC |
| Owner | People's Republic of China |
| NORAD ID | 37461 |
| Date fetched |
Epoch osculation |
Inc. [°] |
Ecc. | RA asc node [hr] |
Arg Peri. [°] |
Mean anom [°] |
Mean motion [rev/day] |
Abs. mag |
| Date fetched |
Epoch osculation |
Inc. [°] |
Ecc. | RA asc node [hr] |
Arg Peri. [°] |
Mean anom [°] |
Mean motion [rev/day] |
Abs. mag |
| 2026 May 05 17:57 | 2026 May 03 21:21:51 | 99.8668 | 0.06644 | 0.0143 | 15.3942 | 346.6338 | 12.79565 | – |
| 2026 May 04 17:57 | 2026 Apr 29 21:39:58 | 99.8670 | 0.06644 | 23.7800 | 24.1011 | 346.6338 | 12.79565 | – |
| 2026 May 03 17:57 | 2026 Apr 29 21:39:58 | 99.8670 | 0.06644 | 23.7800 | 24.1011 | 346.6338 | 12.79565 | – |
| 2026 May 02 17:57 | 2026 Apr 29 21:39:58 | 99.8670 | 0.06644 | 23.7800 | 24.1011 | 346.6338 | 12.79565 | – |
| 2026 May 01 17:56 | 2026 Apr 29 21:39:58 | 99.8670 | 0.06644 | 23.7800 | 24.1011 | 346.6338 | 12.79565 | – |
| 2026 Apr 30 17:56 | 2026 Apr 29 21:39:58 | 99.8670 | 0.06644 | 23.7800 | 24.1011 | 346.6338 | 12.79565 | – |
| 2026 Apr 29 17:57 | 2026 Apr 21 22:15:56 | 99.8678 | 0.06642 | 23.3115 | 41.5241 | 346.6338 | 12.79565 | – |
| 2026 Apr 28 17:56 | 2026 Apr 21 22:15:56 | 99.8678 | 0.06642 | 23.3115 | 41.5241 | 346.6338 | 12.79565 | – |
| 2026 Apr 27 17:58 | 2026 Apr 21 22:15:56 | 99.8678 | 0.06642 | 23.3115 | 41.5241 | 346.6338 | 12.79565 | – |
| 2026 Apr 26 17:58 | 2026 Apr 21 22:15:56 | 99.8678 | 0.06642 | 23.3115 | 41.5241 | 346.6338 | 12.79565 | – |
| 2026 Apr 25 17:58 | 2026 Apr 21 22:15:56 | 99.8678 | 0.06642 | 23.3115 | 41.5241 | 346.6338 | 12.79565 | – |
| 2026 Apr 24 17:59 | 2026 Apr 21 22:15:56 | 99.8678 | 0.06642 | 23.3115 | 41.5241 | 346.6338 | 12.79565 | – |
| 2026 Apr 23 17:57 | 2026 Apr 19 10:13:02 | 99.8680 | 0.06639 | 23.1645 | 46.9876 | 346.6338 | 12.79565 | – |
| 2026 Apr 22 17:57 | 2026 Apr 19 10:13:02 | 99.8680 | 0.06639 | 23.1645 | 46.9876 | 346.6338 | 12.79565 | – |
| 2026 Apr 21 17:57 | 2026 Apr 19 10:13:02 | 99.8680 | 0.06639 | 23.1645 | 46.9876 | 346.6338 | 12.79565 | – |
| 2026 Apr 20 17:57 | 2026 Apr 19 10:13:02 | 99.8680 | 0.06639 | 23.1645 | 46.9876 | 346.6338 | 12.79565 | – |
| 2026 Apr 19 17:58 | 2026 Apr 19 10:13:02 | 99.8680 | 0.06639 | 23.1645 | 46.9876 | 346.6338 | 12.79565 | – |
| 2026 Apr 18 17:56 | 2026 Apr 11 10:48:30 | 99.8689 | 0.06630 | 22.6960 | 64.4243 | 346.6338 | 12.79565 | – |
| 2026 Apr 16 17:57 | 2026 Apr 11 10:48:30 | 99.8689 | 0.06630 | 22.6960 | 64.4243 | 346.6338 | 12.79565 | – |
| 2026 Apr 14 17:57 | 2026 Apr 11 10:48:30 | 99.8689 | 0.06630 | 22.6960 | 64.4243 | 346.6338 | 12.79565 | – |
| 2026 Apr 13 17:57 | 2026 Apr 11 10:48:30 | 99.8689 | 0.06630 | 22.6960 | 64.4243 | 346.6338 | 12.79565 | – |
| 2026 Apr 12 17:57 | 2026 Apr 01 21:51:30 | 99.8693 | 0.06616 | 22.1356 | 85.3246 | 346.6338 | 12.79565 | – |
| 2026 Apr 11 17:57 | 2026 Apr 01 21:51:30 | 99.8693 | 0.06616 | 22.1356 | 85.3246 | 346.6338 | 12.79565 | – |
| 2026 Apr 10 17:58 | 2026 Apr 01 21:51:30 | 99.8693 | 0.06616 | 22.1356 | 85.3246 | 346.6338 | 12.79565 | – |
| 2026 Apr 09 18:01 | 2026 Apr 01 21:51:30 | 99.8693 | 0.06616 | 22.1356 | 85.3246 | 346.6338 | 12.79565 | – |
| 2026 Apr 08 17:57 | 2026 Apr 01 21:51:30 | 99.8693 | 0.06616 | 22.1356 | 85.3246 | 346.6338 | 12.79565 | – |